EZY18DM EGPF-EGGW
Flight info
| Callsign | EZY18DM |
|---|---|
| Flight time | 0h 54m |
| Altitude | 31000 |
| Route | NORBO T256 RIPNO DCT AKOMU DCT VAMEB UL612 LISTO |
| Aircraft | A20N/M-SDE2E3FGHIJ1RWXYZ/LB1 |
Departure
| Time | 2026-05-04 17:35 |
|---|---|
| Airport | Glasgow Airport (EGPF) |
Arrival
| Time | 2026-05-04 18:29 |
|---|---|
| Airport | London Luton Airport (EGGW) |
| Time | Latitude | Longitude | Altitude | Speed | Heading |
|---|---|---|---|---|---|
| 2026-05-04 17:01 | 55.86670 | -4.43030 | 29 ft | 0 kts | 254° |
| 2026-05-04 17:26 | 55.86674 | -4.43004 | 29 ft | 3 kts | 260° |
| 2026-05-04 17:27 | 55.86670 | -4.42937 | 29 ft | 3 kts | 321° |
| 2026-05-04 17:27 | 55.86662 | -4.42927 | 29 ft | 0 kts | 343° |
| 2026-05-04 17:30 | 55.86662 | -4.42928 | 29 ft | 1 kts | 343° |
| 2026-05-04 17:31 | 55.86797 | -4.42994 | 29 ft | 15 kts | 351° |
| 2026-05-04 17:31 | 55.87138 | -4.42764 | 29 ft | 21 kts | 20° |
| 2026-05-04 17:32 | 55.87408 | -4.42556 | 29 ft | 19 kts | 42° |
| 2026-05-04 17:33 | 55.87646 | -4.42155 | 29 ft | 0 kts | 13° |
| 2026-05-04 17:34 | 55.87689 | -4.42154 | 29 ft | 11 kts | 349° |
| 2026-05-04 17:34 | 55.87751 | -4.42244 | 29 ft | 11 kts | 289° |
| 2026-05-04 17:35 | 55.87224 | -4.43275 | 29 ft | 116 kts | 226° |
| 2026-05-04 17:35 | 55.85788 | -4.46020 | 833 ft | 161 kts | 230° |
| 2026-05-04 17:35 | 55.85007 | -4.47457 | 1520 ft | 169 kts | 228° |
| 2026-05-04 17:36 | 55.84119 | -4.49036 | 1929 ft | 192 kts | 227° |
| 2026-05-04 17:36 | 55.83110 | -4.50818 | 2346 ft | 217 kts | 227° |
| 2026-05-04 17:36 | 55.81979 | -4.52813 | 2866 ft | 242 kts | 228° |
| 2026-05-04 17:36 | 55.80743 | -4.54991 | 3585 ft | 257 kts | 227° |
| 2026-05-04 17:37 | 55.79448 | -4.57264 | 4551 ft | 263 kts | 227° |
| 2026-05-04 17:37 | 55.78134 | -4.59561 | 5477 ft | 269 kts | 226° |
| 2026-05-04 17:37 | 55.76785 | -4.61915 | 5848 ft | 271 kts | 227° |
| 2026-05-04 17:37 | 55.75439 | -4.64269 | 5960 ft | 271 kts | 227° |
| 2026-05-04 17:38 | 55.74097 | -4.66618 | 5983 ft | 271 kts | 227° |
| 2026-05-04 17:38 | 55.72756 | -4.68969 | 5983 ft | 271 kts | 227° |
| 2026-05-04 17:38 | 55.71407 | -4.71307 | 5998 ft | 271 kts | 226° |
| 2026-05-04 17:38 | 55.70022 | -4.73628 | 6619 ft | 275 kts | 222° |
| 2026-05-04 17:39 | 55.66408 | -4.75809 | 8544 ft | 287 kts | 184° |
| 2026-05-04 17:39 | 55.64408 | -4.75920 | 9494 ft | 289 kts | 184° |
| 2026-05-04 17:39 | 55.62375 | -4.76033 | 10315 ft | 297 kts | 183° |
| 2026-05-04 17:40 | 55.60241 | -4.75530 | 10637 ft | 324 kts | 165° |
| 2026-05-04 17:40 | 55.58831 | -4.74549 | 10992 ft | 333 kts | 154° |
| 2026-05-04 17:40 | 55.56861 | -4.72310 | 11743 ft | 341 kts | 142° |
| 2026-05-04 17:40 | 55.55024 | -4.69604 | 12546 ft | 345 kts | 141° |
| 2026-05-04 17:41 | 55.53130 | -4.66864 | 13370 ft | 349 kts | 142° |
| 2026-05-04 17:41 | 55.51230 | -4.64152 | 14118 ft | 353 kts | 142° |
| 2026-05-04 17:41 | 55.49328 | -4.61455 | 14787 ft | 357 kts | 142° |
| 2026-05-04 17:41 | 55.47377 | -4.58691 | 15469 ft | 361 kts | 142° |
| 2026-05-04 17:42 | 55.45410 | -4.55900 | 16138 ft | 365 kts | 142° |
| 2026-05-04 17:42 | 55.43419 | -4.53080 | 16815 ft | 369 kts | 142° |
| 2026-05-04 17:42 | 55.41405 | -4.50230 | 17486 ft | 374 kts | 142° |
| 2026-05-04 17:42 | 55.39374 | -4.47353 | 18149 ft | 378 kts | 142° |
| 2026-05-04 17:43 | 55.37314 | -4.44431 | 18746 ft | 382 kts | 142° |
| 2026-05-04 17:43 | 55.35239 | -4.41489 | 19337 ft | 385 kts | 142° |
| 2026-05-04 17:43 | 55.33148 | -4.38530 | 19946 ft | 387 kts | 142° |
| 2026-05-04 17:43 | 55.31039 | -4.35550 | 20532 ft | 390 kts | 142° |
| 2026-05-04 17:44 | 55.28917 | -4.32559 | 21126 ft | 393 kts | 142° |
| 2026-05-04 17:44 | 55.26777 | -4.29550 | 21696 ft | 396 kts | 143° |
| 2026-05-04 17:44 | 55.24626 | -4.26529 | 22252 ft | 398 kts | 143° |
| 2026-05-04 17:44 | 55.22451 | -4.23482 | 22822 ft | 401 kts | 143° |
| 2026-05-04 17:45 | 55.20266 | -4.20424 | 23374 ft | 404 kts | 143° |
| 2026-05-04 17:45 | 55.18075 | -4.17325 | 23871 ft | 407 kts | 140° |
| 2026-05-04 17:45 | 55.16064 | -4.13817 | 24306 ft | 410 kts | 135° |
| 2026-05-04 17:45 | 55.14096 | -4.10173 | 24754 ft | 413 kts | 135° |
| 2026-05-04 17:46 | 55.12117 | -4.06514 | 25183 ft | 416 kts | 135° |
| 2026-05-04 17:46 | 55.10126 | -4.02840 | 25609 ft | 418 kts | 135° |
| 2026-05-04 17:46 | 55.08116 | -3.99138 | 26031 ft | 421 kts | 135° |
| 2026-05-04 17:46 | 55.06095 | -3.95419 | 26455 ft | 423 kts | 135° |
| 2026-05-04 17:47 | 55.04062 | -3.91691 | 26872 ft | 426 kts | 135° |
| 2026-05-04 17:47 | 55.02011 | -3.87944 | 27287 ft | 428 kts | 135° |
| 2026-05-04 17:47 | 54.99948 | -3.84187 | 27698 ft | 431 kts | 135° |
| 2026-05-04 17:47 | 54.97867 | -3.80406 | 28105 ft | 433 kts | 135° |
| 2026-05-04 17:48 | 54.95777 | -3.76615 | 28504 ft | 435 kts | 136° |
| 2026-05-04 17:48 | 54.93499 | -3.73134 | 28886 ft | 437 kts | 144° |
| 2026-05-04 17:48 | 54.90956 | -3.70240 | 29269 ft | 438 kts | 150° |
| 2026-05-04 17:48 | 54.88351 | -3.67473 | 29662 ft | 441 kts | 150° |
| 2026-05-04 17:49 | 54.85723 | -3.64688 | 30012 ft | 443 kts | 149° |
| 2026-05-04 17:49 | 54.83084 | -3.61891 | 30340 ft | 446 kts | 149° |
| 2026-05-04 17:49 | 54.80443 | -3.59086 | 30643 ft | 448 kts | 149° |
| 2026-05-04 17:49 | 54.77771 | -3.56253 | 30940 ft | 450 kts | 149° |
| 2026-05-04 17:50 | 54.72517 | -3.50691 | 31050 ft | 428 kts | 149° |
| 2026-05-04 17:50 | 54.67540 | -3.45436 | 31051 ft | 415 kts | 149° |
| 2026-05-04 17:51 | 54.62621 | -3.40261 | 31049 ft | 413 kts | 149° |
| 2026-05-04 17:51 | 54.57702 | -3.35120 | 31050 ft | 413 kts | 149° |
| 2026-05-04 17:52 | 54.52805 | -3.30010 | 31054 ft | 413 kts | 149° |
| 2026-05-04 17:52 | 54.47922 | -3.24925 | 31049 ft | 413 kts | 149° |
| 2026-05-04 17:53 | 54.43011 | -3.19813 | 31042 ft | 412 kts | 149° |
| 2026-05-04 17:53 | 54.38110 | -3.14722 | 31046 ft | 412 kts | 149° |
| 2026-05-04 17:54 | 54.33162 | -3.09628 | 31041 ft | 411 kts | 149° |
| 2026-05-04 17:54 | 54.28293 | -3.04624 | 31045 ft | 411 kts | 148° |
| 2026-05-04 17:55 | 54.23398 | -2.99591 | 31038 ft | 410 kts | 148° |
| 2026-05-04 17:55 | 54.18507 | -2.94568 | 31041 ft | 410 kts | 148° |
| 2026-05-04 17:56 | 54.13369 | -2.90382 | 31043 ft | 410 kts | 156° |
| 2026-05-04 17:56 | 54.08131 | -2.86582 | 31052 ft | 409 kts | 155° |
| 2026-05-04 17:57 | 54.02885 | -2.82783 | 31058 ft | 409 kts | 155° |
| 2026-05-04 17:57 | 53.97653 | -2.78996 | 31069 ft | 408 kts | 155° |
| 2026-05-04 17:58 | 53.92434 | -2.75219 | 31071 ft | 408 kts | 155° |
| 2026-05-04 17:58 | 53.87219 | -2.71449 | 31074 ft | 407 kts | 155° |
| 2026-05-04 17:59 | 53.82155 | -2.67806 | 31069 ft | 406 kts | 155° |
| 2026-05-04 18:00 | 53.74344 | -2.62201 | 31066 ft | 406 kts | 155° |
| 2026-05-04 18:00 | 53.69144 | -2.58488 | 31065 ft | 406 kts | 154° |
| 2026-05-04 18:01 | 53.63943 | -2.54776 | 31065 ft | 406 kts | 154° |
| 2026-05-04 18:01 | 53.58746 | -2.51084 | 31054 ft | 405 kts | 154° |
| 2026-05-04 18:02 | 53.50953 | -2.45569 | 31052 ft | 405 kts | 154° |
| 2026-05-04 18:02 | 53.45764 | -2.41905 | 31054 ft | 404 kts | 154° |
| 2026-05-04 18:03 | 53.40585 | -2.38246 | 31050 ft | 404 kts | 154° |
| 2026-05-04 18:03 | 53.35392 | -2.34599 | 31051 ft | 404 kts | 154° |
| 2026-05-04 18:04 | 53.30208 | -2.30969 | 31061 ft | 404 kts | 154° |
| 2026-05-04 18:05 | 53.22442 | -2.25539 | 31063 ft | 403 kts | 154° |
| 2026-05-04 18:05 | 53.17304 | -2.21968 | 31064 ft | 402 kts | 154° |
| 2026-05-04 18:06 | 53.10147 | -2.15150 | 31058 ft | 396 kts | 141° |
| 2026-05-04 18:06 | 53.05737 | -2.09661 | 31059 ft | 395 kts | 139° |
| 2026-05-04 18:07 | 53.01364 | -2.04124 | 31055 ft | 395 kts | 140° |
| 2026-05-04 18:07 | 52.96938 | -1.98699 | 31055 ft | 396 kts | 141° |
| 2026-05-04 18:08 | 52.92482 | -1.93332 | 31056 ft | 396 kts | 141° |
| 2026-05-04 18:08 | 52.88021 | -1.87987 | 31053 ft | 396 kts | 142° |
| 2026-05-04 18:09 | 52.79111 | -1.77290 | 31046 ft | 396 kts | 143° |
| 2026-05-04 18:10 | 52.74605 | -1.71979 | 30333 ft | 401 kts | 148° |
| 2026-05-04 18:10 | 52.72164 | -1.69800 | 29825 ft | 397 kts | 152° |
| 2026-05-04 18:10 | 52.69729 | -1.67708 | 29369 ft | 391 kts | 152° |
| 2026-05-04 18:11 | 52.67338 | -1.65648 | 28934 ft | 386 kts | 153° |
| 2026-05-04 18:11 | 52.64976 | -1.63610 | 28499 ft | 380 kts | 153° |
| 2026-05-04 18:11 | 52.62647 | -1.61601 | 28079 ft | 375 kts | 153° |
| 2026-05-04 18:11 | 52.60354 | -1.59632 | 27649 ft | 370 kts | 154° |
| 2026-05-04 18:12 | 52.58081 | -1.57682 | 27223 ft | 366 kts | 154° |
| 2026-05-04 18:12 | 52.55835 | -1.55759 | 26792 ft | 362 kts | 154° |
| 2026-05-04 18:12 | 52.53604 | -1.53853 | 26353 ft | 359 kts | 155° |
| 2026-05-04 18:12 | 52.51394 | -1.51967 | 25922 ft | 357 kts | 155° |
| 2026-05-04 18:13 | 52.49200 | -1.50098 | 25491 ft | 355 kts | 155° |
| 2026-05-04 18:13 | 52.47014 | -1.48238 | 25039 ft | 353 kts | 156° |
| 2026-05-04 18:13 | 52.42670 | -1.44552 | 24111 ft | 351 kts | 157° |
| 2026-05-04 18:14 | 52.40506 | -1.42722 | 23638 ft | 350 kts | 157° |
| 2026-05-04 18:14 | 52.38345 | -1.40895 | 23126 ft | 349 kts | 157° |
| 2026-05-04 18:14 | 52.36198 | -1.39077 | 22665 ft | 346 kts | 156° |
| 2026-05-04 18:15 | 52.31950 | -1.35476 | 21769 ft | 342 kts | 156° |
| 2026-05-04 18:15 | 52.27723 | -1.31831 | 19984 ft | 345 kts | 153° |
| 2026-05-04 18:15 | 52.25671 | -1.29916 | 19419 ft | 336 kts | 152° |
| 2026-05-04 18:16 | 52.23644 | -1.27974 | 18448 ft | 341 kts | 151° |
| 2026-05-04 18:16 | 52.21603 | -1.26007 | 17530 ft | 340 kts | 151° |
| 2026-05-04 18:16 | 52.19566 | -1.24051 | 16693 ft | 338 kts | 151° |
| 2026-05-04 18:17 | 52.15534 | -1.20224 | 15100 ft | 333 kts | 151° |
| 2026-05-04 18:17 | 52.13532 | -1.18340 | 14366 ft | 331 kts | 152° |
| 2026-05-04 18:17 | 52.09560 | -1.14620 | 12819 ft | 327 kts | 152° |
| 2026-05-04 18:18 | 52.07593 | -1.12782 | 12068 ft | 323 kts | 152° |
| 2026-05-04 18:18 | 52.05657 | -1.10977 | 11354 ft | 319 kts | 152° |
| 2026-05-04 18:18 | 52.03775 | -1.09221 | 11050 ft | 302 kts | 150° |
| 2026-05-04 18:18 | 52.02180 | -1.07083 | 10552 ft | 296 kts | 130° |
| 2026-05-04 18:19 | 52.00037 | -1.01485 | 9282 ft | 292 kts | 109° |
| 2026-05-04 18:19 | 51.99782 | -0.98256 | 8645 ft | 289 kts | 85° |
| 2026-05-04 18:19 | 52.00049 | -0.95022 | 7950 ft | 288 kts | 82° |
| 2026-05-04 18:20 | 52.00119 | -0.91811 | 7294 ft | 284 kts | 101° |
| 2026-05-04 18:20 | 51.99489 | -0.88806 | 6654 ft | 280 kts | 114° |
| 2026-05-04 18:20 | 51.98776 | -0.86236 | 6318 ft | 269 kts | 116° |
| 2026-05-04 18:20 | 51.98011 | -0.83550 | 5989 ft | 255 kts | 116° |
| 2026-05-04 18:21 | 51.97286 | -0.81032 | 5959 ft | 238 kts | 116° |
| 2026-05-04 18:21 | 51.96592 | -0.78674 | 5957 ft | 228 kts | 121° |
| 2026-05-04 18:21 | 51.95509 | -0.76888 | 5964 ft | 222 kts | 153° |
| 2026-05-04 18:21 | 51.94113 | -0.75815 | 5959 ft | 222 kts | 160° |
| 2026-05-04 18:22 | 51.92686 | -0.74879 | 5959 ft | 221 kts | 160° |
| 2026-05-04 18:22 | 51.91238 | -0.74070 | 5729 ft | 218 kts | 175° |
| 2026-05-04 18:22 | 51.89737 | -0.73985 | 5423 ft | 215 kts | 185° |
| 2026-05-04 18:22 | 51.88249 | -0.74100 | 5160 ft | 214 kts | 186° |
| 2026-05-04 18:23 | 51.86760 | -0.74247 | 4911 ft | 214 kts | 186° |
| 2026-05-04 18:23 | 51.85293 | -0.73934 | 4687 ft | 215 kts | 159° |
| 2026-05-04 18:23 | 51.84424 | -0.73197 | 4628 ft | 211 kts | 147° |
| 2026-05-04 18:23 | 51.83087 | -0.70979 | 4481 ft | 206 kts | 122° |
| 2026-05-04 18:24 | 51.82667 | -0.69621 | 4402 ft | 204 kts | 110° |
| 2026-05-04 18:24 | 51.82379 | -0.67432 | 4213 ft | 196 kts | 92° |
| 2026-05-04 18:24 | 51.82502 | -0.65280 | 3971 ft | 190 kts | 74° |
| 2026-05-04 18:24 | 51.82857 | -0.63248 | 3719 ft | 186 kts | 72° |
| 2026-05-04 18:25 | 51.83208 | -0.61256 | 3480 ft | 183 kts | 72° |
| 2026-05-04 18:25 | 51.83544 | -0.59334 | 3240 ft | 173 kts | 72° |
| 2026-05-04 18:25 | 51.83866 | -0.57501 | 3006 ft | 165 kts | 71° |
| 2026-05-04 18:25 | 51.84166 | -0.55784 | 2806 ft | 154 kts | 71° |
| 2026-05-04 18:26 | 51.84457 | -0.54120 | 2586 ft | 154 kts | 71° |
| 2026-05-04 18:26 | 51.84749 | -0.52451 | 2382 ft | 153 kts | 70° |
| 2026-05-04 18:26 | 51.85025 | -0.50867 | 2189 ft | 140 kts | 70° |
| 2026-05-04 18:26 | 51.85283 | -0.49389 | 1998 ft | 134 kts | 71° |
| 2026-05-04 18:27 | 51.85531 | -0.47968 | 1823 ft | 130 kts | 71° |
| 2026-05-04 18:27 | 51.85777 | -0.46560 | 1635 ft | 131 kts | 71° |
| 2026-05-04 18:27 | 51.86023 | -0.45158 | 1448 ft | 128 kts | 71° |
| 2026-05-04 18:27 | 51.86278 | -0.43768 | 1282 ft | 130 kts | 70° |
| 2026-05-04 18:28 | 51.86534 | -0.42367 | 1059 ft | 129 kts | 71° |
| 2026-05-04 18:28 | 51.86759 | -0.40958 | 902 ft | 129 kts | 73° |
| 2026-05-04 18:28 | 51.86985 | -0.39559 | 722 ft | 128 kts | 71° |
| 2026-05-04 18:28 | 51.87238 | -0.38160 | 550 ft | 129 kts | 73° |
| 2026-05-04 18:29 | 51.87453 | -0.36908 | 523 ft | 95 kts | 75° |
| 2026-05-04 18:29 | 51.87585 | -0.36134 | 517 ft | 50 kts | 75° |
| 2026-05-04 18:29 | 51.87651 | -0.35907 | 516 ft | 15 kts | 359° |
| 2026-05-04 18:29 | 51.87754 | -0.35967 | 516 ft | 17 kts | 326° |
| 2026-05-04 18:30 | 51.87746 | -0.36293 | 518 ft | 14 kts | 255° |
| 2026-05-04 18:30 | 51.87720 | -0.36438 | 519 ft | 12 kts | 254° |
| 2026-05-04 18:30 | 51.87700 | -0.36557 | 520 ft | 10 kts | 254° |
| 2026-05-04 18:31 | 51.87683 | -0.36658 | 521 ft | 10 kts | 255° |
| 2026-05-04 18:31 | 51.87667 | -0.36749 | 523 ft | 7 kts | 254° |
| 2026-05-04 18:31 | 51.87654 | -0.36820 | 525 ft | 10 kts | 255° |
| 2026-05-04 18:31 | 51.87660 | -0.36931 | 524 ft | 11 kts | 313° |
| 2026-05-04 18:32 | 51.87744 | -0.36987 | 519 ft | 17 kts | 342° |
| 2026-05-04 18:32 | 51.87881 | -0.37060 | 510 ft | 24 kts | 342° |
| 2026-05-04 18:32 | 51.88040 | -0.37145 | 508 ft | 24 kts | 341° |
| 2026-05-04 18:32 | 51.88193 | -0.37224 | 516 ft | 17 kts | 343° |
| 2026-05-04 18:33 | 51.88228 | -0.37339 | 517 ft | 13 kts | 254° |
| 2026-05-04 18:33 | 51.88202 | -0.37468 | 516 ft | 11 kts | 262° |
| 2026-05-04 18:33 | 51.88204 | -0.37590 | 517 ft | 12 kts | 250° |
| 2026-05-04 18:33 | 51.88164 | -0.37708 | 523 ft | 6 kts | 239° |
| 2026-05-04 18:34 | 51.88162 | -0.37713 | 523 ft | 0 kts | 237° |
| 2026-05-04 18:34 | 51.88157 | -0.37720 | 523 ft | 2 kts | 221° |
| 2026-05-04 18:34 | 51.88146 | -0.37726 | 523 ft | 1 kts | 194° |
| 2026-05-04 18:34 | 51.88132 | -0.37721 | 523 ft | 2 kts | 160° |
| 2026-05-04 18:35 | 51.88122 | -0.37712 | 523 ft | 1 kts | 149° |
| 2026-05-04 18:35 | 51.88116 | -0.37708 | 523 ft | 1 kts | 160° |
| 2026-05-04 18:35 | 51.88110 | -0.37705 | 523 ft | 1 kts | 163° |
| 2026-05-04 18:35 | 51.88108 | -0.37704 | 523 ft | 0 kts | 165° |